Date,TemperatureHighF,TemperatureAvgF,TemperatureLowF,DewpointHighF,DewpointAvgF,DewpointLowF,HumidityHigh,HumidityAvg,HumidityLow,PressureMaxIn,PressureMinIn,WindSpeedMaxMPH,WindSpeedAvgMPH,GustSpeedMaxMPH,PrecipitationSumIn
2013-1-23,-2.4,-2.7,-3.1,-16.3,-16.4,-16.8,51,51,51,29.79,29.76,4,0,4,0.00
2013-1-24,16.5,5.0,-8.5,1.1,-9.3,-21.8,51,51,50,29.97,29.73,15,2,15,0.00
2013-1-25,19.9,9.9,-2.7,3.8,-4.9,-16.4,51,50,49,30.06,29.70,8,1,9,0.00
2013-1-26,21.6,12.1,1.8,5.3,-2.9,-12.2,51,50,49,29.94,29.70,14,2,14,0.00
2013-1-31,46.8,34.8,25.0,39.6,20.5,9.7,95,57,46,29.26,28.70,24,5,24,0.04
2013-2-1,29.8,24.5,18.7,12.0,7.9,2.5,56,49,47,29.70,29.26,15,4,15,0.00
2013-2-2,27.1,20.6,9.5,9.5,4.4,-5.0,51,49,47,29.97,29.67,17,2,17,0.00
2013-2-3,21.2,17.4,12.6,8.2,3.1,0.2,66,53,49,29.67,29.55,5,0,6,0.00
2013-2-26,34.5,28.7,0.0,24.3,20.2,0.0,66,55,66,29.73,29.73,9,2,9,0.00
2013-2-27,39.9,35.4,32.5,35.9,30.2,24.3,88,81,66,29.73,29.23,23,4,23,0.83
2013-2-28,41.2,33.7,28.9,36.4,29.8,24.9,92,86,77,29.29,29.17,4,0,4,0.04
2013-3-1,44.2,34.5,27.3,33.9,24.1,17.8,92,68,48,29.32,29.17,15,2,15,0.00
2013-6-24,89.2,84.2,0.0,69.5,65.2,0.0,55,53,48,29.99,29.87,10,1,10,0.08
2013-6-25,81.9,81.9,81.9,64.1,64.1,64.1,55,55,55,29.96,29.72,8,1,14,0.00
2013-6-26,81.9,81.9,81.9,64.1,64.1,64.1,55,55,55,29.78,29.72,0,0,0,0.00
2013-6-29,69.4,68.4,68.0,63.3,61.9,61.0,84,80,75,29.69,0.00,8,0,8,0.00
2013-6-30,85.3,73.5,67.1,72.5,67.8,63.0,98,84,55,29.90,29.69,11,2,11,0.04
2013-7-1,74.3,71.6,68.7,74.3,71.6,68.7,100,100,98,30.04,29.90,6,0,6,0.04
2013-7-2,81.0,74.3,70.2,79.0,70.1,66.2,100,88,65,30.13,30.04,13,2,13,0.00
2013-7-3,85.3,76.1,71.4,72.8,68.3,65.8,94,78,57,30.19,30.10,10,2,11,0.00
2013-7-4,89.2,79.4,69.8,77.4,69.1,64.6,100,73,53,30.19,30.07,15,2,15,0.00
2013-7-5,90.9,83.3,72.3,72.6,68.3,65.7,84,61,53,30.13,0.00,14,2,14,0.00
2013-7-6,87.8,77.7,66.4,78.5,66.7,58.5,100,72,48,30.07,29.98,11,1,13,0.00
2013-7-7,89.4,73.8,64.0,74.2,65.9,60.2,98,78,53,30.01,29.90,11,0,11,0.00
2013-7-8,86.4,76.1,68.5,77.9,69.0,65.1,100,80,55,30.04,29.90,10,1,10,0.00
2013-7-9,81.7,72.7,68.4,73.0,68.1,65.5,100,87,66,30.07,29.98,10,1,10,0.00
2013-7-10,84.2,73.1,68.2,75.9,70.6,66.6,100,92,66,30.01,29.75,12,1,12,0.00
2013-7-11,80.6,72.7,65.5,78.9,69.8,63.1,100,91,66,29.96,29.75,8,0,8,0.00
2013-7-12,80.6,70.1,60.6,69.0,60.2,52.5,100,75,47,30.10,29.96,14,2,14,0.00
2013-7-17,91.2,83.2,73.8,77.8,73.6,69.7,95,74,62,30.10,29.98,9,1,9,0.00
2013-7-18,91.9,80.4,70.3,83.2,71.7,64.7,100,77,53,30.01,29.93,10,1,10,0.00
2013-7-19,93.9,81.4,68.9,79.2,68.9,64.8,96,68,47,29.93,29.72,14,2,14,0.00
2013-7-20,88.2,76.8,64.9,74.0,62.8,54.5,77,63,51,29.84,29.66,10,1,10,0.00
2013-7-21,83.8,71.3,59.4,65.9,58.1,52.7,84,64,47,29.98,29.84,8,0,8,0.00
2013-7-22,82.8,71.7,61.9,70.9,62.1,57.9,94,73,54,29.98,29.84,8,1,8,0.00
2013-7-23,81.0,71.2,66.9,80.3,69.3,60.3,100,94,76,29.84,29.54,10,0,10,0.00
2013-7-24,80.4,72.3,65.7,76.8,67.4,59.2,100,86,62,29.72,29.60,13,1,13,0.00
2013-8-1,78.8,67.3,63.1,61.3,57.8,55.9,84,72,55,0.00,0.00,10,1,10,0.00
2013-8-2,78.4,68.7,60.6,71.0,59.4,52.3,97,74,48,0.00,0.00,13,1,13,0.00
2013-8-3,76.3,65.1,56.3,65.9,54.8,46.8,91,71,48,0.00,0.00,13,1,13,0.00
2013-8-4,76.1,62.0,51.6,62.1,51.3,41.3,85,69,48,0.00,0.00,10,1,13,0.00
2013-8-5,72.1,59.5,47.8,57.6,46.9,40.0,92,66,46,0.00,0.00,13,2,13,0.00
2013-8-6,77.9,61.0,44.6,56.7,47.6,37.8,83,63,45,0.00,0.00,10,1,10,0.00
2013-8-7,78.8,65.6,52.9,63.7,52.6,45.9,84,64,45,0.00,0.00,12,2,12,0.00
2013-8-8,78.4,71.0,64.0,68.1,61.2,53.8,88,72,60,0.00,0.00,14,2,14,0.00
2013-9-17,61.9,52.6,34.7,43.9,38.2,28.9,83,59,46,0.00,0.00,13,1,13,0.00
2013-9-18,68.4,51.5,39.0,54.2,40.9,31.6,86,69,47,0.00,0.00,8,1,8,0.00
2013-9-19,73.9,56.1,43.3,59.3,46.3,37.8,90,71,49,0.00,0.00,8,0,8,0.00
2013-9-20,74.3,57.5,45.0,62.5,49.0,40.1,92,74,54,0.00,0.00,8,0,8,0.00
2013-9-21,72.5,62.3,48.7,60.0,53.7,43.8,97,75,57,0.00,0.00,17,2,17,0.00
2013-9-22,67.8,60.1,48.6,59.7,49.3,36.5,90,68,51,0.00,0.00,15,2,15,0.00
2013-9-23,59.7,49.2,39.6,41.9,36.5,32.3,78,62,47,0.00,0.00,17,1,17,0.00
2013-9-24,63.9,49.2,36.9,45.6,37.4,31.1,88,66,46,0.00,0.00,15,2,15,0.00
2013-9-25,66.9,53.4,37.4,51.4,42.3,31.8,88,68,50,0.00,0.00,10,1,10,0.00
2013-9-26,64.0,54.8,48.4,48.8,44.4,39.9,82,69,51,0.00,0.00,8,0,8,0.00
2013-9-27,63.1,54.8,46.2,53.0,47.5,41.0,88,77,61,0.00,0.00,7,0,7,0.00
2013-10-10,59.4,48.0,34.7,46.0,39.5,28.9,84,73,59,0.00,0.00,6,0,6,0.00
2013-10-11,70.5,52.8,39.0,54.7,42.7,34.9,100,71,45,0.00,0.00,11,1,11,0.00
2013-10-12,56.7,47.6,38.5,56.5,46.8,38.5,100,97,88,0.00,0.00,10,1,10,0.00
2013-10-22,59.4,49.0,37.4,54.7,42.3,31.8,100,78,60,29.18,0.00,11,1,11,0.00
2013-10-23,50.4,40.3,30.9,41.3,31.7,27.4,99,74,46,29.03,28.85,7,0,7,0.00
2013-10-24,50.4,40.8,28.9,39.0,28.0,22.4,98,63,45,29.15,28.91,11,2,15,0.00
2013-10-25,48.0,37.4,26.4,35.4,23.6,12.8,86,59,45,29.35,29.15,11,1,11,0.00
2013-10-26,52.2,39.4,24.6,40.0,25.9,16.9,87,60,45,29.38,29.12,15,3,15,0.00
2013-10-27,52.2,44.2,30.4,32.0,26.1,17.3,67,49,45,29.29,29.03,15,2,15,0.00
2013-10-28,55.8,38.7,25.2,39.8,26.6,19.7,92,64,45,29.44,29.29,15,2,15,0.00
2013-10-29,46.6,31.6,0.0,30.8,17.9,0.0,83,58,45,29.68,29.56,8,1,8,0.00
2013-10-30,51.8,35.8,25.2,33.5,24.6,10.8,81,64,46,29.56,29.44,8,0,8,0.00
2013-10-31,58.5,42.8,28.6,58.5,41.6,24.6,100,95,82,29.47,29.06,15,1,15,0.24
2013-11-2,61.9,52.4,42.3,46.0,41.8,38.8,91,70,46,29.03,0.00,8,1,8,0.00
2013-11-3,44.8,37.2,26.1,42.0,22.8,9.0,93,57,45,29.65,29.03,13,3,13,0.00
2013-11-4,41.0,28.3,18.5,22.1,12.0,4.8,71,50,46,29.88,29.65,9,0,9,0.00
2013-11-5,47.1,33.1,21.6,28.1,21.3,8.0,80,63,45,29.91,29.71,10,1,10,0.00
2013-11-6,57.6,45.3,32.2,44.3,34.9,27.3,91,69,47,29.71,29.32,18,3,18,0.00
2013-11-7,52.3,42.6,33.8,49.6,38.4,26.7,91,85,75,29.09,0.00,12,1,12,0.00
2013-11-8,45.7,33.8,24.8,38.1,22.0,10.8,93,64,45,29.32,29.06,17,2,17,0.00
2013-11-9,41.9,32.5,22.5,30.4,20.8,15.7,84,63,46,29.44,29.21,8,1,10,0.00
2013-11-10,50.2,42.2,36.3,43.6,29.7,21.1,91,63,47,29.21,29.03,17,2,17,0.00
2013-11-11,49.5,41.9,32.2,29.5,23.2,15.2,65,47,45,29.35,29.12,11,2,12,0.00
2013-11-12,43.9,32.1,20.1,26.5,15.9,4.0,69,51,46,29.41,29.12,13,2,13,0.00
2013-11-13,33.1,23.8,14.0,15.3,8.4,1.2,77,52,47,29.53,29.35,10,1,10,0.00
2013-11-14,48.2,33.6,23.0,28.7,16.0,9.0,67,48,45,29.35,29.29,11,1,11,0.00
2013-11-15,55.9,33.2,19.9,34.9,19.9,11.0,80,59,45,29.44,29.35,8,0,10,0.00
2013-11-16,57.6,37.8,27.3,37.5,24.9,18.0,76,61,44,29.56,29.41,8,0,8,0.00
2013-11-17,56.5,41.9,27.3,56.3,37.9,20.8,100,85,76,29.53,29.09,8,0,8,0.00
2013-11-18,61.7,54.2,41.2,60.4,44.9,25.6,100,74,46,29.09,28.82,22,3,22,0.24
2013-11-19,44.2,35.7,26.2,24.2,17.2,9.2,48,46,45,29.53,28.94,15,3,15,0.00
2013-11-20,37.4,26.7,17.6,18.8,9.7,2.3,55,48,46,29.83,29.53,11,1,11,0.00
2013-11-21,43.0,28.5,13.8,23.3,14.8,2.5,77,57,45,29.85,29.59,11,0,11,0.00
2013-11-22,44.8,38.0,32.2,43.5,34.8,22.8,100,88,67,29.59,29.09,4,0,4,0.08
2013-11-23,44.2,35.4,25.3,44.2,21.3,8.4,100,57,46,29.21,29.03,11,3,17,0.00
2013-11-24,25.5,20.2,16.0,13.8,4.7,0.4,68,51,48,29.44,29.06,24,4,24,0.00
2013-11-25,29.7,21.4,8.4,11.9,5.0,-6.0,51,49,47,29.59,29.41,11,1,11,0.00
2013-11-26,35.2,31.3,26.2,30.0,16.3,9.2,89,54,47,29.53,29.23,11,1,11,0.08
2013-11-27,48.6,40.6,32.7,48.6,40.1,29.0,100,98,85,29.23,28.56,14,1,14,1.34
2013-11-28,33.6,25.8,15.6,33.6,11.2,0.4,100,55,47,29.65,28.73,17,3,17,0.00
2013-11-29,31.1,21.4,10.0,17.6,7.0,-4.5,73,54,47,29.91,29.65,11,0,11,0.00
2013-11-30,10.0,7.5,5.9,-4.5,-6.8,-8.4,51,51,51,29.97,29.91,0,0,0,0.00
2013-12-2,36.9,33.4,31.8,36.1,33.0,31.1,100,98,97,29.18,0.00,0,0,0,0.00
2013-12-3,45.9,33.4,24.8,41.6,30.6,21.8,100,90,63,29.21,29.12,8,0,8,0.00
2013-12-4,41.5,28.8,20.3,36.4,21.9,18.1,96,77,48,29.41,29.21,8,0,8,0.00
2013-12-5,51.6,37.6,25.5,51.6,35.6,20.5,100,92,81,29.41,29.15,14,0,14,0.00
2013-12-6,51.8,43.5,32.5,51.8,43.4,32.0,100,99,96,29.38,29.12,8,0,8,0.08
2013-12-7,36.0,30.0,21.0,35.8,29.2,19.6,100,97,90,29.68,29.32,8,0,8,0.00
2013-12-8,28.4,22.8,14.9,25.9,19.5,13.5,96,87,74,29.80,29.65,5,0,5,0.00
2013-12-9,33.1,29.2,23.4,32.9,26.0,16.4,100,88,70,29.68,29.12,5,0,8,0.00
2013-12-10,33.8,27.9,15.3,33.6,27.5,13.8,100,98,94,29.21,29.03,6,0,6,0.00
2013-12-11,29.8,20.1,12.9,23.0,13.3,6.5,96,76,48,29.41,29.21,13,2,13,0.00
2013-12-12,22.5,14.2,5.4,13.9,3.3,-8.9,83,63,49,29.50,29.23,14,1,14,0.00
2013-12-13,26.1,16.5,6.4,13.6,3.1,-7.9,70,55,49,29.59,29.18,10,2,10,0.00
2013-12-14,16.2,10.5,6.3,8.1,-1.2,-4.0,70,59,50,29.80,29.35,9,2,9,0.00
2013-12-15,27.1,21.9,16.0,20.1,15.2,7.6,81,75,65,29.35,28.73,13,2,13,0.00
2013-12-16,25.5,17.3,4.6,15.1,4.4,-9.7,83,57,48,29.38,28.94,15,2,15,0.00
2013-12-17,12.9,5.5,-7.8,-1.8,-8.7,-21.1,51,51,51,29.44,29.18,8,0,8,0.00
2013-12-18,31.1,18.6,9.0,21.1,8.1,-2.5,79,64,48,29.26,29.12,11,1,11,0.00
2013-12-19,37.9,26.8,14.2,23.6,17.4,8.9,81,69,46,29.29,29.18,15,2,15,0.00
2013-12-20,47.5,31.3,22.8,34.6,24.9,17.9,89,78,47,29.32,29.12,9,0,9,0.00
2013-12-21,48.4,36.2,30.7,44.4,32.8,29.0,98,88,73,29.21,29.12,8,0,8,0.08
2013-12-22,54.9,42.5,34.0,54.7,42.2,31.4,100,99,90,29.21,28.97,15,1,15,0.00
2013-12-23,36.7,35.0,33.8,36.7,35.0,33.8,100,100,100,29.32,29.18,9,0,9,0.16
2013-12-24,33.8,29.1,21.6,33.8,18.7,5.2,100,68,47,29.44,29.29,13,1,13,0.00
2013-12-25,21.4,16.8,10.4,5.2,1.2,-4.2,51,50,49,29.68,29.44,14,1,14,0.00
2013-12-26,28.4,22.4,15.4,20.7,11.2,0.9,80,63,49,29.65,29.29,6,0,6,0.00
2013-12-27,31.6,22.1,9.9,24.2,13.4,4.6,82,70,48,29.47,29.38,10,1,10,0.00
2013-12-28,22.1,20.1,18.3,13.1,11.9,10.8,72,70,68,29.41,29.38,0,0,0,0.00
2013-12-30,36.3,27.5,11.3,32.7,16.5,-3.5,97,65,46,29.35,0.00,16,2,16,0.00
2013-12-31,22.1,14.5,6.1,5.8,-0.6,-8.2,59,50,49,29.38,29.23,11,0,11,0.00
2014-1-1,25.2,17.2,11.5,8.2,1.7,-3.2,54,50,48,29.59,29.35,13,1,13,0.00
2014-1-2,17.4,11.4,2.3,2.9,-2.8,-11.3,56,52,50,29.56,29.09,17,4,17,0.00